Allouez, MI

5:11 AM EDT on July 06, 2015 (GMT -0400)
MesoWest | | Change Station
CLOSE
Current Station
Personal Weather Station
Location: Laurium, MI
Elevation: 1170 ft
Nearby Weather Stations

Elev 1170 ft 47.22 °N, 88.46 °W | Updated 36 minutes ago

Rain
Rain
67 °F
Feels Like 67 °F
N
5
Wind Variable Wind from SSW
Gusts 18.0 mph

Today
High -- | Low -- °F
--% Chance of Precip.
Yesterday
High -- | Low -- °F
Precip. -- in
6:04 AM 9:51 PM
Waning Gibbous, 77% visible
Pressure 29.75 in
Visibility 5.0 miles
Clouds Few 12000 ft
Dew Point 66 °F
Humidity 99%
Rainfall in
Snow Depth Not available.
UV 0 out of 12
Pollen 5.10 out of 12
Air Quality Not available.
Flu Activity Not available.
METAR KCMX 060853Z AUTO 20008KT 5SM -RA BR FEW120 20/19 A2977 RMK AO2 SLP073 P0008 60010 T02000189 58010

More Conditions Fewer Conditions

Pressure 29.75 in
Visibility 5.0 miles
Clouds Few 12000 ft
Dew Point 66 °F
Humidity 99%
Rainfall in
Snow Depth Not available.
UV 0 out of 12
Pollen 5.10 out of 12
Air Quality Not available.
Flu Activity Not available.
METAR KCMX 060853Z AUTO 20008KT 5SM -RA BR FEW120 20/19 A2977 RMK AO2 SLP073 P0008 60010 T02000189 58010

More Conditions Fewer Conditions

10-Day Weather Forecast

×

Almanac

Astronomy

Jul. 06, 2015 Rise Set
Actual Time
Civil Twilight
Nautical Twilight
Astronomical Twilight
Moon
Length of Visible Light
Length of Day
Tomorrow will be .
, % of the Moon is Illuminated

Today's Extremes

State Highs State Lows

Community

WunderPhotos

Upload Photos

1,835,520 photos uploaded!

WunderBlogs® & News

Nearby

Air Quality

  Air Quality AQ Index Pollutant
Not available.

Snow Depth

Station Depth Elevation

Earthquake Activity

City Distance Mag. Time & Date
Minimum magnitude displayed is 2.5.

Coastal Water Temperatures

Place Temperature

Stations

Nearby Weather Stations

Station Location Temp. Windchill Dew Point Humidity Wind Precip. Elev Updated Type